sensor_id;sensor_type;location;lat;lon;timestamp;P1;durP1;ratioP1;P2;durP2;ratioP2
9968;SDS011;5025;48.890;9.278;2022-07-29T00:00:41;3.63;;;3.43;;
9968;SDS011;5025;48.890;9.278;2022-07-29T00:03:09;3.47;;;3.27;;
9968;SDS011;5025;48.890;9.278;2022-07-29T00:05:35;3.67;;;3.47;;
9968;SDS011;5025;48.890;9.278;2022-07-29T00:08:01;3.77;;;3.47;;
9968;SDS011;5025;48.890;9.278;2022-07-29T00:10:26;3.63;;;3.43;;
9968;SDS011;5025;48.890;9.278;2022-07-29T00:12:52;3.60;;;3.40;;
9968;SDS011;5025;48.890;9.278;2022-07-29T00:15:17;3.50;;;3.37;;
9968;SDS011;5025;48.890;9.278;2022-07-29T00:17:42;3.37;;;3.17;;
9968;SDS011;5025;48.890;9.278;2022-07-29T00:20:08;4.00;;;3.70;;
9968;SDS011;5025;48.890;9.278;2022-07-29T00:22:36;4.13;;;3.90;;
9968;SDS011;5025;48.890;9.278;2022-07-29T00:25:02;3.87;;;3.67;;
9968;SDS011;5025;48.890;9.278;2022-07-29T00:27:28;3.17;;;2.97;;
9968;SDS011;5025;48.890;9.278;2022-07-29T00:29:53;4.00;;;3.70;;
9968;SDS011;5025;48.890;9.278;2022-07-29T00:32:19;3.57;;;3.27;;
9968;SDS011;5025;48.890;9.278;2022-07-29T00:34:44;3.60;;;3.40;;
9968;SDS011;5025;48.890;9.278;2022-07-29T00:37:28;3.50;;;3.30;;
9968;SDS011;5025;48.890;9.278;2022-07-29T00:39:54;3.80;;;3.60;;
9968;SDS011;5025;48.890;9.278;2022-07-29T00:42:19;3.73;;;3.53;;
9968;SDS011;5025;48.890;9.278;2022-07-29T00:44:44;3.30;;;3.10;;
9968;SDS011;5025;48.890;9.278;2022-07-29T00:47:10;3.43;;;3.00;;
9968;SDS011;5025;48.890;9.278;2022-07-29T00:49:36;3.50;;;3.30;;
9968;SDS011;5025;48.890;9.278;2022-07-29T00:52:03;3.47;;;3.27;;
9968;SDS011;5025;48.890;9.278;2022-07-29T00:54:30;3.40;;;3.20;;
9968;SDS011;5025;48.890;9.278;2022-07-29T00:56:59;3.53;;;3.33;;
9968;SDS011;5025;48.890;9.278;2022-07-29T00:59:28;3.73;;;3.47;;
9968;SDS011;5025;48.890;9.278;2022-07-29T01:01:53;3.53;;;3.37;;
9968;SDS011;5025;48.890;9.278;2022-07-29T01:04:20;3.43;;;3.23;;
9968;SDS011;5025;48.890;9.278;2022-07-29T01:06:46;3.50;;;3.30;;
9968;SDS011;5025;48.890;9.278;2022-07-29T01:09:15;3.57;;;3.40;;
9968;SDS011;5025;48.890;9.278;2022-07-29T01:11:43;3.50;;;3.30;;
9968;SDS011;5025;48.890;9.278;2022-07-29T01:14:11;3.50;;;3.40;;
9968;SDS011;5025;48.890;9.278;2022-07-29T01:16:39;3.40;;;3.20;;
9968;SDS011;5025;48.890;9.278;2022-07-29T01:22:35;3.70;;;3.50;;
9968;SDS011;5025;48.890;9.278;2022-07-29T01:25:17;3.40;;;3.20;;
9968;SDS011;5025;48.890;9.278;2022-07-29T01:30:28;3.60;;;3.40;;
9968;SDS011;5025;48.890;9.278;2022-07-29T01:32:59;3.57;;;3.37;;
9968;SDS011;5025;48.890;9.278;2022-07-29T01:35:28;3.27;;;3.07;;
9968;SDS011;5025;48.890;9.278;2022-07-29T01:38:20;3.80;;;3.50;;
9968;SDS011;5025;48.890;9.278;2022-07-29T01:41:05;3.53;;;3.33;;
9968;SDS011;5025;48.890;9.278;2022-07-29T01:43:50;3.40;;;3.20;;
9968;SDS011;5025;48.890;9.278;2022-07-29T01:46:20;3.47;;;3.27;;
9968;SDS011;5025;48.890;9.278;2022-07-29T01:48:55;3.50;;;3.30;;
9968;SDS011;5025;48.890;9.278;2022-07-29T01:51:25;3.50;;;3.30;;
9968;SDS011;5025;48.890;9.278;2022-07-29T01:56:47;3.77;;;3.57;;
9968;SDS011;5025;48.890;9.278;2022-07-29T01:59:15;3.93;;;3.63;;
9968;SDS011;5025;48.890;9.278;2022-07-29T02:01:43;4.03;;;3.73;;
9968;SDS011;5025;48.890;9.278;2022-07-29T02:04:12;3.50;;;3.30;;
9968;SDS011;5025;48.890;9.278;2022-07-29T02:06:39;4.10;;;3.80;;
9968;SDS011;5025;48.890;9.278;2022-07-29T02:09:07;3.53;;;3.33;;
9968;SDS011;5025;48.890;9.278;2022-07-29T02:11:35;3.50;;;3.30;;
9968;SDS011;5025;48.890;9.278;2022-07-29T02:14:02;3.83;;;3.60;;
9968;SDS011;5025;48.890;9.278;2022-07-29T02:16:30;3.77;;;3.57;;
9968;SDS011;5025;48.890;9.278;2022-07-29T02:18:58;3.50;;;3.30;;
9968;SDS011;5025;48.890;9.278;2022-07-29T02:21:26;3.53;;;3.33;;
9968;SDS011;5025;48.890;9.278;2022-07-29T02:23:54;3.70;;;3.50;;
9968;SDS011;5025;48.890;9.278;2022-07-29T02:26:24;3.57;;;3.40;;
9968;SDS011;5025;48.890;9.278;2022-07-29T02:28:52;3.47;;;3.27;;
9968;SDS011;5025;48.890;9.278;2022-07-29T02:31:21;3.80;;;3.60;;
9968;SDS011;5025;48.890;9.278;2022-07-29T02:33:51;3.73;;;3.53;;
9968;SDS011;5025;48.890;9.278;2022-07-29T02:36:18;3.53;;;3.33;;
9968;SDS011;5025;48.890;9.278;2022-07-29T02:38:47;3.40;;;3.20;;
9968;SDS011;5025;48.890;9.278;2022-07-29T02:41:17;3.70;;;3.50;;
9968;SDS011;5025;48.890;9.278;2022-07-29T02:43:43;3.90;;;3.60;;
9968;SDS011;5025;48.890;9.278;2022-07-29T02:46:13;3.60;;;3.30;;
9968;SDS011;5025;48.890;9.278;2022-07-29T02:48:43;3.60;;;3.40;;
9968;SDS011;5025;48.890;9.278;2022-07-29T02:51:19;3.83;;;3.53;;
9968;SDS011;5025;48.890;9.278;2022-07-29T02:53:51;3.30;;;3.20;;
9968;SDS011;5025;48.890;9.278;2022-07-29T02:56:21;3.70;;;3.40;;
9968;SDS011;5025;48.890;9.278;2022-07-29T02:58:53;3.60;;;3.40;;
9968;SDS011;5025;48.890;9.278;2022-07-29T03:01:22;3.67;;;3.37;;
9968;SDS011;5025;48.890;9.278;2022-07-29T03:03:50;4.10;;;3.90;;
9968;SDS011;5025;48.890;9.278;2022-07-29T03:06:19;3.90;;;3.60;;
9968;SDS011;5025;48.890;9.278;2022-07-29T03:08:47;4.20;;;3.90;;
9968;SDS011;5025;48.890;9.278;2022-07-29T03:11:14;3.80;;;3.53;;
9968;SDS011;5025;48.890;9.278;2022-07-29T03:13:41;4.00;;;3.80;;
9968;SDS011;5025;48.890;9.278;2022-07-29T03:16:07;3.73;;;3.53;;
9968;SDS011;5025;48.890;9.278;2022-07-29T03:18:35;3.80;;;3.60;;
9968;SDS011;5025;48.890;9.278;2022-07-29T03:21:01;4.00;;;3.80;;
9968;SDS011;5025;48.890;9.278;2022-07-29T03:23:28;3.50;;;3.30;;
9968;SDS011;5025;48.890;9.278;2022-07-29T03:25:53;3.70;;;3.50;;
9968;SDS011;5025;48.890;9.278;2022-07-29T03:28:19;3.80;;;3.60;;
9968;SDS011;5025;48.890;9.278;2022-07-29T03:30:45;3.67;;;3.47;;
9968;SDS011;5025;48.890;9.278;2022-07-29T03:33:11;4.33;;;4.03;;
9968;SDS011;5025;48.890;9.278;2022-07-29T03:35:37;4.03;;;3.63;;
9968;SDS011;5025;48.890;9.278;2022-07-29T03:38:02;3.67;;;3.47;;
9968;SDS011;5025;48.890;9.278;2022-07-29T03:40:38;3.73;;;3.53;;
9968;SDS011;5025;48.890;9.278;2022-07-29T03:43:09;4.20;;;3.80;;
9968;SDS011;5025;48.890;9.278;2022-07-29T03:45:36;4.10;;;3.80;;
9968;SDS011;5025;48.890;9.278;2022-07-29T03:48:05;4.30;;;4.00;;
9968;SDS011;5025;48.890;9.278;2022-07-29T03:50:37;4.40;;;4.10;;
9968;SDS011;5025;48.890;9.278;2022-07-29T03:53:03;4.33;;;4.03;;
9968;SDS011;5025;48.890;9.278;2022-07-29T03:55:29;4.10;;;3.90;;
9968;SDS011;5025;48.890;9.278;2022-07-29T03:57:59;3.63;;;3.43;;
9968;SDS011;5025;48.890;9.278;2022-07-29T04:00:27;3.87;;;3.63;;
9968;SDS011;5025;48.890;9.278;2022-07-29T04:02:52;4.43;;;4.13;;
9968;SDS011;5025;48.890;9.278;2022-07-29T04:05:18;4.03;;;3.83;;
9968;SDS011;5025;48.890;9.278;2022-07-29T04:07:44;4.00;;;3.80;;
9968;SDS011;5025;48.890;9.278;2022-07-29T04:10:10;5.30;;;4.23;;
9968;SDS011;5025;48.890;9.278;2022-07-29T04:12:36;4.57;;;4.17;;
9968;SDS011;5025;48.890;9.278;2022-07-29T04:15:05;4.20;;;3.90;;
9968;SDS011;5025;48.890;9.278;2022-07-29T04:17:30;4.40;;;4.10;;
9968;SDS011;5025;48.890;9.278;2022-07-29T04:19:56;4.03;;;3.73;;
9968;SDS011;5025;48.890;9.278;2022-07-29T04:22:21;4.53;;;4.23;;
9968;SDS011;5025;48.890;9.278;2022-07-29T04:24:46;4.30;;;4.00;;
9968;SDS011;5025;48.890;9.278;2022-07-29T04:27:12;4.13;;;3.83;;
9968;SDS011;5025;48.890;9.278;2022-07-29T04:29:37;4.43;;;4.20;;
9968;SDS011;5025;48.890;9.278;2022-07-29T04:32:03;4.57;;;4.27;;
9968;SDS011;5025;48.890;9.278;2022-07-29T04:34:28;4.13;;;3.83;;
9968;SDS011;5025;48.890;9.278;2022-07-29T04:36:54;4.30;;;4.10;;
9968;SDS011;5025;48.890;9.278;2022-07-29T04:39:20;4.07;;;3.87;;
9968;SDS011;5025;48.890;9.278;2022-07-29T04:41:45;4.63;;;4.33;;
9968;SDS011;5025;48.890;9.278;2022-07-29T04:44:11;4.30;;;4.00;;
9968;SDS011;5025;48.890;9.278;2022-07-29T04:46:36;3.90;;;3.70;;
9968;SDS011;5025;48.890;9.278;2022-07-29T04:49:02;4.50;;;4.20;;
9968;SDS011;5025;48.890;9.278;2022-07-29T04:51:28;4.33;;;4.13;;
9968;SDS011;5025;48.890;9.278;2022-07-29T04:53:53;4.83;;;4.53;;
9968;SDS011;5025;48.890;9.278;2022-07-29T04:56:19;4.87;;;4.47;;
9968;SDS011;5025;48.890;9.278;2022-07-29T04:58:44;5.10;;;4.70;;
9968;SDS011;5025;48.890;9.278;2022-07-29T05:01:09;4.77;;;4.47;;
9968;SDS011;5025;48.890;9.278;2022-07-29T05:03:35;5.30;;;4.90;;
9968;SDS011;5025;48.890;9.278;2022-07-29T05:06:00;4.53;;;4.23;;
9968;SDS011;5025;48.890;9.278;2022-07-29T05:08:25;4.93;;;4.63;;
9968;SDS011;5025;48.890;9.278;2022-07-29T05:10:51;4.63;;;4.33;;
9968;SDS011;5025;48.890;9.278;2022-07-29T05:13:16;5.07;;;4.77;;
9968;SDS011;5025;48.890;9.278;2022-07-29T05:15:41;4.10;;;3.90;;
9968;SDS011;5025;48.890;9.278;2022-07-29T05:18:07;4.47;;;4.17;;
9968;SDS011;5025;48.890;9.278;2022-07-29T05:20:32;4.80;;;4.40;;
9968;SDS011;5025;48.890;9.278;2022-07-29T05:22:59;4.60;;;4.30;;
9968;SDS011;5025;48.890;9.278;2022-07-29T05:25:25;4.47;;;4.20;;
9968;SDS011;5025;48.890;9.278;2022-07-29T05:27:51;4.47;;;4.17;;
9968;SDS011;5025;48.890;9.278;2022-07-29T05:30:17;4.27;;;4.03;;
9968;SDS011;5025;48.890;9.278;2022-07-29T05:32:42;4.07;;;3.87;;
9968;SDS011;5025;48.890;9.278;2022-07-29T05:35:08;4.73;;;4.43;;
9968;SDS011;5025;48.890;9.278;2022-07-29T05:37:33;4.50;;;4.20;;
9968;SDS011;5025;48.890;9.278;2022-07-29T05:39:59;4.10;;;3.90;;
9968;SDS011;5025;48.890;9.278;2022-07-29T05:42:25;4.53;;;4.23;;
9968;SDS011;5025;48.890;9.278;2022-07-29T05:44:50;4.00;;;3.80;;
9968;SDS011;5025;48.890;9.278;2022-07-29T05:47:16;4.20;;;3.93;;
9968;SDS011;5025;48.890;9.278;2022-07-29T05:49:41;4.10;;;3.80;;
9968;SDS011;5025;48.890;9.278;2022-07-29T05:52:07;4.40;;;4.00;;
9968;SDS011;5025;48.890;9.278;2022-07-29T05:54:33;4.00;;;3.80;;
9968;SDS011;5025;48.890;9.278;2022-07-29T05:56:59;3.80;;;3.60;;
9968;SDS011;5025;48.890;9.278;2022-07-29T05:59:25;4.87;;;4.47;;
9968;SDS011;5025;48.890;9.278;2022-07-29T06:01:50;3.97;;;3.67;;
9968;SDS011;5025;48.890;9.278;2022-07-29T06:04:15;3.50;;;3.30;;
9968;SDS011;5025;48.890;9.278;2022-07-29T06:06:41;4.10;;;3.80;;
9968;SDS011;5025;48.890;9.278;2022-07-29T06:09:06;3.93;;;3.73;;
9968;SDS011;5025;48.890;9.278;2022-07-29T06:11:32;3.90;;;3.70;;
9968;SDS011;5025;48.890;9.278;2022-07-29T06:13:58;4.10;;;3.87;;
9968;SDS011;5025;48.890;9.278;2022-07-29T06:16:23;3.47;;;3.27;;
9968;SDS011;5025;48.890;9.278;2022-07-29T06:18:48;3.80;;;3.60;;
9968;SDS011;5025;48.890;9.278;2022-07-29T06:21:14;3.30;;;3.07;;
9968;SDS011;5025;48.890;9.278;2022-07-29T06:23:39;3.10;;;2.93;;
9968;SDS011;5025;48.890;9.278;2022-07-29T06:26:05;3.90;;;3.60;;
9968;SDS011;5025;48.890;9.278;2022-07-29T06:28:31;3.50;;;3.30;;
9968;SDS011;5025;48.890;9.278;2022-07-29T06:30:56;3.30;;;3.10;;
9968;SDS011;5025;48.890;9.278;2022-07-29T06:33:22;3.20;;;3.00;;
9968;SDS011;5025;48.890;9.278;2022-07-29T06:35:47;2.80;;;2.70;;
9968;SDS011;5025;48.890;9.278;2022-07-29T06:38:13;3.00;;;2.90;;
9968;SDS011;5025;48.890;9.278;2022-07-29T06:40:43;3.30;;;3.10;;
9968;SDS011;5025;48.890;9.278;2022-07-29T06:43:24;3.10;;;3.00;;
9968;SDS011;5025;48.890;9.278;2022-07-29T06:45:50;3.40;;;3.20;;
9968;SDS011;5025;48.890;9.278;2022-07-29T06:48:15;3.30;;;3.10;;
9968;SDS011;5025;48.890;9.278;2022-07-29T06:50:40;3.13;;;3.00;;
9968;SDS011;5025;48.890;9.278;2022-07-29T06:53:06;3.30;;;3.10;;
9968;SDS011;5025;48.890;9.278;2022-07-29T06:55:31;3.10;;;3.00;;
9968;SDS011;5025;48.890;9.278;2022-07-29T06:57:56;2.80;;;2.60;;
9968;SDS011;5025;48.890;9.278;2022-07-29T07:00:22;3.10;;;2.90;;
9968;SDS011;5025;48.890;9.278;2022-07-29T07:02:47;2.70;;;2.60;;
9968;SDS011;5025;48.890;9.278;2022-07-29T07:05:12;2.50;;;2.40;;
9968;SDS011;5025;48.890;9.278;2022-07-29T07:07:38;2.90;;;2.80;;
9968;SDS011;5025;48.890;9.278;2022-07-29T07:10:03;2.70;;;2.60;;
9968;SDS011;5025;48.890;9.278;2022-07-29T07:12:29;3.00;;;2.80;;
9968;SDS011;5025;48.890;9.278;2022-07-29T07:14:54;2.60;;;2.50;;
9968;SDS011;5025;48.890;9.278;2022-07-29T07:17:19;3.17;;;2.97;;
9968;SDS011;5025;48.890;9.278;2022-07-29T07:19:45;3.30;;;3.10;;
9968;SDS011;5025;48.890;9.278;2022-07-29T07:22:10;3.03;;;2.90;;
9968;SDS011;5025;48.890;9.278;2022-07-29T07:24:35;2.80;;;2.70;;
9968;SDS011;5025;48.890;9.278;2022-07-29T07:27:00;2.70;;;2.60;;
9968;SDS011;5025;48.890;9.278;2022-07-29T07:29:26;2.93;;;2.83;;
9968;SDS011;5025;48.890;9.278;2022-07-29T07:31:52;3.20;;;3.00;;
9968;SDS011;5025;48.890;9.278;2022-07-29T07:34:17;3.10;;;2.90;;
9968;SDS011;5025;48.890;9.278;2022-07-29T07:36:42;2.83;;;2.73;;
9968;SDS011;5025;48.890;9.278;2022-07-29T07:39:08;3.23;;;3.00;;
9968;SDS011;5025;48.890;9.278;2022-07-29T07:41:33;2.93;;;2.73;;
9968;SDS011;5025;48.890;9.278;2022-07-29T07:43:58;2.67;;;2.50;;
9968;SDS011;5025;48.890;9.278;2022-07-29T07:46:24;3.43;;;3.20;;
9968;SDS011;5025;48.890;9.278;2022-07-29T07:48:49;2.83;;;2.70;;
9968;SDS011;5025;48.890;9.278;2022-07-29T07:51:14;3.10;;;3.00;;
9968;SDS011;5025;48.890;9.278;2022-07-29T07:53:40;3.00;;;2.80;;
9968;SDS011;5025;48.890;9.278;2022-07-29T07:56:05;2.80;;;2.70;;
9968;SDS011;5025;48.890;9.278;2022-07-29T07:58:32;3.00;;;2.80;;
9968;SDS011;5025;48.890;9.278;2022-07-29T08:00:57;3.30;;;3.10;;
9968;SDS011;5025;48.890;9.278;2022-07-29T08:03:23;3.50;;;3.30;;
9968;SDS011;5025;48.890;9.278;2022-07-29T08:05:48;3.40;;;3.17;;
9968;SDS011;5025;48.890;9.278;2022-07-29T08:08:15;3.40;;;3.20;;
9968;SDS011;5025;48.890;9.278;2022-07-29T08:10:41;3.87;;;3.47;;
9968;SDS011;5025;48.890;9.278;2022-07-29T08:13:19;3.70;;;3.40;;
9968;SDS011;5025;48.890;9.278;2022-07-29T08:15:46;3.80;;;3.50;;
9968;SDS011;5025;48.890;9.278;2022-07-29T08:18:11;3.83;;;3.53;;
9968;SDS011;5025;48.890;9.278;2022-07-29T08:20:38;3.60;;;3.30;;
9968;SDS011;5025;48.890;9.278;2022-07-29T08:23:04;3.60;;;3.30;;
9968;SDS011;5025;48.890;9.278;2022-07-29T08:25:32;3.40;;;3.20;;
9968;SDS011;5025;48.890;9.278;2022-07-29T08:27:58;3.17;;;3.00;;
9968;SDS011;5025;48.890;9.278;2022-07-29T08:30:23;4.23;;;3.83;;
9968;SDS011;5025;48.890;9.278;2022-07-29T08:32:49;3.77;;;3.47;;
9968;SDS011;5025;48.890;9.278;2022-07-29T08:35:17;3.40;;;3.20;;
9968;SDS011;5025;48.890;9.278;2022-07-29T08:37:43;3.20;;;3.00;;
9968;SDS011;5025;48.890;9.278;2022-07-29T08:40:08;3.50;;;3.30;;
9968;SDS011;5025;48.890;9.278;2022-07-29T08:42:34;3.47;;;3.27;;
9968;SDS011;5025;48.890;9.278;2022-07-29T08:45:00;3.50;;;3.30;;
9968;SDS011;5025;48.890;9.278;2022-07-29T08:47:25;3.83;;;3.50;;
9968;SDS011;5025;48.890;9.278;2022-07-29T08:49:52;3.67;;;3.30;;
9968;SDS011;5025;48.890;9.278;2022-07-29T08:52:18;3.70;;;3.40;;
9968;SDS011;5025;48.890;9.278;2022-07-29T08:54:44;3.30;;;3.00;;
9968;SDS011;5025;48.890;9.278;2022-07-29T08:57:12;3.93;;;3.37;;
9968;SDS011;5025;48.890;9.278;2022-07-29T08:59:39;3.30;;;3.20;;
9968;SDS011;5025;48.890;9.278;2022-07-29T09:02:08;3.20;;;3.00;;
9968;SDS011;5025;48.890;9.278;2022-07-29T09:04:40;3.30;;;3.00;;
9968;SDS011;5025;48.890;9.278;2022-07-29T09:07:06;3.13;;;2.63;;
9968;SDS011;5025;48.890;9.278;2022-07-29T09:09:33;2.90;;;2.80;;
9968;SDS011;5025;48.890;9.278;2022-07-29T09:11:58;2.97;;;2.87;;
9968;SDS011;5025;48.890;9.278;2022-07-29T09:14:24;3.77;;;3.33;;
9968;SDS011;5025;48.890;9.278;2022-07-29T09:16:51;3.47;;;3.23;;
9968;SDS011;5025;48.890;9.278;2022-07-29T09:19:24;3.90;;;3.60;;
9968;SDS011;5025;48.890;9.278;2022-07-29T09:21:51;3.60;;;3.37;;
9968;SDS011;5025;48.890;9.278;2022-07-29T09:24:24;3.73;;;3.43;;
9968;SDS011;5025;48.890;9.278;2022-07-29T09:26:51;3.90;;;3.60;;
9968;SDS011;5025;48.890;9.278;2022-07-29T09:29:18;4.17;;;3.40;;
9968;SDS011;5025;48.890;9.278;2022-07-29T09:31:45;3.73;;;3.53;;
9968;SDS011;5025;48.890;9.278;2022-07-29T09:34:14;4.20;;;3.90;;
9968;SDS011;5025;48.890;9.278;2022-07-29T09:36:42;3.57;;;3.37;;
9968;SDS011;5025;48.890;9.278;2022-07-29T09:39:11;3.80;;;3.60;;
9968;SDS011;5025;48.890;9.278;2022-07-29T09:41:51;3.90;;;3.50;;
9968;SDS011;5025;48.890;9.278;2022-07-29T09:44:18;4.50;;;4.10;;
9968;SDS011;5025;48.890;9.278;2022-07-29T09:46:56;6.30;;;4.00;;
9968;SDS011;5025;48.890;9.278;2022-07-29T09:49:33;3.73;;;3.47;;
9968;SDS011;5025;48.890;9.278;2022-07-29T09:54:28;3.50;;;3.20;;
9968;SDS011;5025;48.890;9.278;2022-07-29T09:56:59;4.23;;;3.50;;
9968;SDS011;5025;48.890;9.278;2022-07-29T09:59:24;4.13;;;3.60;;
9968;SDS011;5025;48.890;9.278;2022-07-29T10:01:51;3.80;;;3.50;;
9968;SDS011;5025;48.890;9.278;2022-07-29T10:04:17;3.77;;;3.57;;
9968;SDS011;5025;48.890;9.278;2022-07-29T10:06:56;3.67;;;3.37;;
9968;SDS011;5025;48.890;9.278;2022-07-29T10:09:26;4.13;;;3.73;;
9968;SDS011;5025;48.890;9.278;2022-07-29T10:12:12;3.93;;;3.50;;
9968;SDS011;5025;48.890;9.278;2022-07-29T10:14:41;3.90;;;3.70;;
9968;SDS011;5025;48.890;9.278;2022-07-29T10:17:07;4.03;;;3.73;;
9968;SDS011;5025;48.890;9.278;2022-07-29T10:19:35;6.37;;;3.90;;
9968;SDS011;5025;48.890;9.278;2022-07-29T10:22:03;4.03;;;3.73;;
9968;SDS011;5025;48.890;9.278;2022-07-29T10:24:31;3.70;;;3.50;;
9968;SDS011;5025;48.890;9.278;2022-07-29T10:26:57;3.50;;;3.30;;
9968;SDS011;5025;48.890;9.278;2022-07-29T10:29:24;3.33;;;3.20;;
9968;SDS011;5025;48.890;9.278;2022-07-29T10:43:32;3.90;;;3.60;;
9968;SDS011;5025;48.890;9.278;2022-07-29T10:46:01;3.87;;;3.67;;
9968;SDS011;5025;48.890;9.278;2022-07-29T10:48:27;3.40;;;3.20;;
9968;SDS011;5025;48.890;9.278;2022-07-29T10:56:22;3.83;;;3.53;;
9968;SDS011;5025;48.890;9.278;2022-07-29T11:01:46;5.57;;;3.73;;
9968;SDS011;5025;48.890;9.278;2022-07-29T11:04:11;4.17;;;3.57;;
9968;SDS011;5025;48.890;9.278;2022-07-29T11:09:27;4.20;;;3.70;;
9968;SDS011;5025;48.890;9.278;2022-07-29T11:11:55;3.43;;;3.23;;
9968;SDS011;5025;48.890;9.278;2022-07-29T11:17:17;3.80;;;3.50;;
9968;SDS011;5025;48.890;9.278;2022-07-29T11:19:42;3.63;;;3.33;;
9968;SDS011;5025;48.890;9.278;2022-07-29T11:22:09;3.67;;;3.50;;
9968;SDS011;5025;48.890;9.278;2022-07-29T11:24:35;3.40;;;3.20;;
9968;SDS011;5025;48.890;9.278;2022-07-29T11:27:08;3.30;;;3.10;;
9968;SDS011;5025;48.890;9.278;2022-07-29T11:29:35;3.13;;;3.03;;
9968;SDS011;5025;48.890;9.278;2022-07-29T11:32:24;3.33;;;3.20;;
9968;SDS011;5025;48.890;9.278;2022-07-29T11:37:37;3.53;;;3.23;;
9968;SDS011;5025;48.890;9.278;2022-07-29T11:44:57;3.70;;;3.40;;
9968;SDS011;5025;48.890;9.278;2022-07-29T11:47:23;3.83;;;3.53;;
9968;SDS011;5025;48.890;9.278;2022-07-29T11:49:49;4.30;;;3.90;;
9968;SDS011;5025;48.890;9.278;2022-07-29T11:52:16;3.97;;;3.67;;
9968;SDS011;5025;48.890;9.278;2022-07-29T11:54:42;3.90;;;3.70;;
9968;SDS011;5025;48.890;9.278;2022-07-29T11:57:08;4.20;;;3.90;;
9968;SDS011;5025;48.890;9.278;2022-07-29T11:59:40;4.03;;;3.77;;
9968;SDS011;5025;48.890;9.278;2022-07-29T12:02:07;3.70;;;3.50;;
9968;SDS011;5025;48.890;9.278;2022-07-29T12:04:33;4.33;;;4.03;;
9968;SDS011;5025;48.890;9.278;2022-07-29T12:06:59;4.80;;;4.40;;
9968;SDS011;5025;48.890;9.278;2022-07-29T12:09:25;5.60;;;5.10;;
9968;SDS011;5025;48.890;9.278;2022-07-29T12:11:56;4.97;;;4.57;;
9968;SDS011;5025;48.890;9.278;2022-07-29T12:14:28;5.63;;;4.90;;
9968;SDS011;5025;48.890;9.278;2022-07-29T12:16:56;5.10;;;4.70;;
9968;SDS011;5025;48.890;9.278;2022-07-29T12:19:21;4.93;;;4.60;;
9968;SDS011;5025;48.890;9.278;2022-07-29T12:21:47;5.20;;;4.80;;
9968;SDS011;5025;48.890;9.278;2022-07-29T12:24:14;4.70;;;4.30;;
9968;SDS011;5025;48.890;9.278;2022-07-29T12:26:50;4.87;;;4.47;;
9968;SDS011;5025;48.890;9.278;2022-07-29T12:29:19;4.97;;;4.50;;
9968;SDS011;5025;48.890;9.278;2022-07-29T12:31:46;6.47;;;5.20;;
9968;SDS011;5025;48.890;9.278;2022-07-29T12:34:19;5.63;;;5.13;;
9968;SDS011;5025;48.890;9.278;2022-07-29T12:36:47;4.77;;;4.37;;
9968;SDS011;5025;48.890;9.278;2022-07-29T12:39:16;4.67;;;4.30;;
9968;SDS011;5025;48.890;9.278;2022-07-29T12:41:42;4.07;;;3.77;;
9968;SDS011;5025;48.890;9.278;2022-07-29T12:44:09;4.07;;;3.70;;
9968;SDS011;5025;48.890;9.278;2022-07-29T12:46:35;3.80;;;3.60;;
9968;SDS011;5025;48.890;9.278;2022-07-29T12:49:01;4.17;;;3.70;;
9968;SDS011;5025;48.890;9.278;2022-07-29T12:51:28;3.57;;;3.37;;
9968;SDS011;5025;48.890;9.278;2022-07-29T12:54:07;3.83;;;3.40;;
9968;SDS011;5025;48.890;9.278;2022-07-29T12:56:39;3.43;;;3.20;;
9968;SDS011;5025;48.890;9.278;2022-07-29T12:59:14;3.23;;;3.03;;
9968;SDS011;5025;48.890;9.278;2022-07-29T13:01:40;2.70;;;2.60;;
9968;SDS011;5025;48.890;9.278;2022-07-29T13:04:06;2.43;;;2.23;;
9968;SDS011;5025;48.890;9.278;2022-07-29T13:06:39;2.60;;;2.50;;
9968;SDS011;5025;48.890;9.278;2022-07-29T13:09:13;2.40;;;2.10;;
9968;SDS011;5025;48.890;9.278;2022-07-29T13:11:43;2.50;;;2.27;;
9968;SDS011;5025;48.890;9.278;2022-07-29T13:14:34;2.10;;;2.00;;
9968;SDS011;5025;48.890;9.278;2022-07-29T13:17:04;2.20;;;2.00;;
9968;SDS011;5025;48.890;9.278;2022-07-29T13:19:33;2.13;;;2.03;;
9968;SDS011;5025;48.890;9.278;2022-07-29T13:22:02;3.20;;;2.20;;
9968;SDS011;5025;48.890;9.278;2022-07-29T13:24:28;2.67;;;2.20;;
9968;SDS011;5025;48.890;9.278;2022-07-29T13:26:54;2.50;;;2.40;;
9968;SDS011;5025;48.890;9.278;2022-07-29T13:29:20;2.30;;;2.20;;
9968;SDS011;5025;48.890;9.278;2022-07-29T13:31:45;2.37;;;2.23;;
9968;SDS011;5025;48.890;9.278;2022-07-29T13:34:11;2.60;;;2.50;;
9968;SDS011;5025;48.890;9.278;2022-07-29T13:39:46;2.37;;;2.27;;
9968;SDS011;5025;48.890;9.278;2022-07-29T13:42:13;2.87;;;2.57;;
9968;SDS011;5025;48.890;9.278;2022-07-29T13:47:36;3.43;;;2.70;;
9968;SDS011;5025;48.890;9.278;2022-07-29T13:50:02;3.10;;;2.90;;
9968;SDS011;5025;48.890;9.278;2022-07-29T13:52:29;3.17;;;2.90;;
9968;SDS011;5025;48.890;9.278;2022-07-29T13:54:55;3.17;;;2.87;;
9968;SDS011;5025;48.890;9.278;2022-07-29T13:57:21;3.47;;;3.17;;
9968;SDS011;5025;48.890;9.278;2022-07-29T13:59:46;3.10;;;2.90;;
9968;SDS011;5025;48.890;9.278;2022-07-29T14:02:11;3.30;;;3.00;;
9968;SDS011;5025;48.890;9.278;2022-07-29T14:04:43;3.50;;;3.20;;
9968;SDS011;5025;48.890;9.278;2022-07-29T14:07:08;2.87;;;2.77;;
9968;SDS011;5025;48.890;9.278;2022-07-29T14:09:35;3.30;;;2.90;;
9968;SDS011;5025;48.890;9.278;2022-07-29T14:14:33;4.13;;;3.30;;
9968;SDS011;5025;48.890;9.278;2022-07-29T14:17:00;3.10;;;2.90;;
9968;SDS011;5025;48.890;9.278;2022-07-29T14:19:27;3.53;;;3.33;;
9968;SDS011;5025;48.890;9.278;2022-07-29T14:21:53;3.60;;;3.40;;
9968;SDS011;5025;48.890;9.278;2022-07-29T14:24:18;4.00;;;3.70;;
9968;SDS011;5025;48.890;9.278;2022-07-29T14:26:47;3.93;;;3.43;;
9968;SDS011;5025;48.890;9.278;2022-07-29T14:29:12;4.83;;;4.07;;
9968;SDS011;5025;48.890;9.278;2022-07-29T14:31:37;3.67;;;3.40;;
9968;SDS011;5025;48.890;9.278;2022-07-29T14:34:03;4.00;;;3.70;;
9968;SDS011;5025;48.890;9.278;2022-07-29T14:36:28;3.90;;;3.60;;
9968;SDS011;5025;48.890;9.278;2022-07-29T14:38:53;4.40;;;4.00;;
9968;SDS011;5025;48.890;9.278;2022-07-29T14:41:19;4.47;;;4.07;;
9968;SDS011;5025;48.890;9.278;2022-07-29T14:43:46;4.30;;;4.00;;
9968;SDS011;5025;48.890;9.278;2022-07-29T14:46:18;4.43;;;4.03;;
9968;SDS011;5025;48.890;9.278;2022-07-29T14:48:43;4.93;;;3.67;;
9968;SDS011;5025;48.890;9.278;2022-07-29T14:51:09;3.90;;;3.60;;
9968;SDS011;5025;48.890;9.278;2022-07-29T14:53:35;3.97;;;3.77;;
9968;SDS011;5025;48.890;9.278;2022-07-29T14:56:01;4.17;;;3.87;;
9968;SDS011;5025;48.890;9.278;2022-07-29T14:58:26;4.03;;;3.73;;
9968;SDS011;5025;48.890;9.278;2022-07-29T15:00:52;4.00;;;3.70;;
9968;SDS011;5025;48.890;9.278;2022-07-29T15:03:19;4.20;;;3.90;;
9968;SDS011;5025;48.890;9.278;2022-07-29T15:05:44;3.80;;;3.60;;
9968;SDS011;5025;48.890;9.278;2022-07-29T15:08:10;4.17;;;3.97;;
9968;SDS011;5025;48.890;9.278;2022-07-29T15:10:35;4.53;;;4.23;;
9968;SDS011;5025;48.890;9.278;2022-07-29T15:13:01;4.50;;;4.07;;
9968;SDS011;5025;48.890;9.278;2022-07-29T15:15:27;4.37;;;4.00;;
9968;SDS011;5025;48.890;9.278;2022-07-29T15:17:53;3.97;;;3.77;;
9968;SDS011;5025;48.890;9.278;2022-07-29T15:20:18;4.50;;;4.20;;
9968;SDS011;5025;48.890;9.278;2022-07-29T15:22:44;4.17;;;3.97;;
9968;SDS011;5025;48.890;9.278;2022-07-29T15:25:10;4.70;;;4.30;;
9968;SDS011;5025;48.890;9.278;2022-07-29T15:27:36;4.43;;;4.03;;
9968;SDS011;5025;48.890;9.278;2022-07-29T15:30:05;4.20;;;4.00;;
9968;SDS011;5025;48.890;9.278;2022-07-29T15:32:31;10.67;;;5.37;;
9968;SDS011;5025;48.890;9.278;2022-07-29T15:34:58;9.37;;;5.30;;
9968;SDS011;5025;48.890;9.278;2022-07-29T15:37:23;5.57;;;4.90;;
9968;SDS011;5025;48.890;9.278;2022-07-29T15:39:49;5.23;;;4.47;;
9968;SDS011;5025;48.890;9.278;2022-07-29T15:42:15;4.50;;;4.20;;
9968;SDS011;5025;48.890;9.278;2022-07-29T15:44:41;4.30;;;4.00;;
9968;SDS011;5025;48.890;9.278;2022-07-29T15:47:07;4.60;;;4.20;;
9968;SDS011;5025;48.890;9.278;2022-07-29T15:49:32;3.90;;;3.70;;
9968;SDS011;5025;48.890;9.278;2022-07-29T15:51:59;4.53;;;4.10;;
9968;SDS011;5025;48.890;9.278;2022-07-29T15:54:27;4.20;;;3.90;;
9968;SDS011;5025;48.890;9.278;2022-07-29T15:56:53;4.57;;;4.27;;
9968;SDS011;5025;48.890;9.278;2022-07-29T15:59:19;3.90;;;3.60;;
9968;SDS011;5025;48.890;9.278;2022-07-29T16:01:46;4.00;;;3.70;;
9968;SDS011;5025;48.890;9.278;2022-07-29T16:04:11;3.90;;;3.70;;
9968;SDS011;5025;48.890;9.278;2022-07-29T16:06:36;3.83;;;3.63;;
9968;SDS011;5025;48.890;9.278;2022-07-29T16:09:02;4.07;;;3.87;;